sensor_id;sensor_type;location;lat;lon;timestamp;P1;durP1;ratioP1;P2;durP2;ratioP2
16199;SDS011;8207;52.494;4.654;2023-04-29T00:01:19;23.90;;;16.77;;
16199;SDS011;8207;52.494;4.654;2023-04-29T00:03:46;24.43;;;17.60;;
16199;SDS011;8207;52.494;4.654;2023-04-29T00:06:13;26.33;;;17.20;;
16199;SDS011;8207;52.494;4.654;2023-04-29T00:08:40;23.23;;;15.83;;
16199;SDS011;8207;52.494;4.654;2023-04-29T00:11:07;20.73;;;16.63;;
16199;SDS011;8207;52.494;4.654;2023-04-29T00:13:36;25.20;;;15.90;;
16199;SDS011;8207;52.494;4.654;2023-04-29T00:16:05;24.27;;;16.10;;
16199;SDS011;8207;52.494;4.654;2023-04-29T00:18:33;22.17;;;16.60;;
16199;SDS011;8207;52.494;4.654;2023-04-29T00:21:00;23.83;;;16.00;;
16199;SDS011;8207;52.494;4.654;2023-04-29T00:23:29;24.37;;;16.27;;
16199;SDS011;8207;52.494;4.654;2023-04-29T00:25:56;19.57;;;14.80;;
16199;SDS011;8207;52.494;4.654;2023-04-29T00:28:23;21.53;;;15.23;;
16199;SDS011;8207;52.494;4.654;2023-04-29T00:30:52;22.50;;;14.53;;
16199;SDS011;8207;52.494;4.654;2023-04-29T00:33:20;23.27;;;14.50;;
16199;SDS011;8207;52.494;4.654;2023-04-29T00:35:46;17.97;;;14.67;;
16199;SDS011;8207;52.494;4.654;2023-04-29T00:38:13;23.10;;;14.17;;
16199;SDS011;8207;52.494;4.654;2023-04-29T00:40:40;20.00;;;13.40;;
16199;SDS011;8207;52.494;4.654;2023-04-29T00:43:08;19.03;;;13.37;;
16199;SDS011;8207;52.494;4.654;2023-04-29T00:45:35;20.50;;;14.13;;
16199;SDS011;8207;52.494;4.654;2023-04-29T00:48:04;20.23;;;13.43;;
16199;SDS011;8207;52.494;4.654;2023-04-29T00:50:31;19.13;;;13.00;;
16199;SDS011;8207;52.494;4.654;2023-04-29T00:52:58;19.43;;;14.10;;
16199;SDS011;8207;52.494;4.654;2023-04-29T00:55:26;20.23;;;13.87;;
16199;SDS011;8207;52.494;4.654;2023-04-29T00:57:54;20.47;;;14.57;;
16199;SDS011;8207;52.494;4.654;2023-04-29T01:00:22;21.90;;;14.57;;
16199;SDS011;8207;52.494;4.654;2023-04-29T01:02:50;21.87;;;14.30;;
16199;SDS011;8207;52.494;4.654;2023-04-29T01:05:20;20.07;;;13.70;;
16199;SDS011;8207;52.494;4.654;2023-04-29T01:07:50;20.00;;;13.70;;
16199;SDS011;8207;52.494;4.654;2023-04-29T01:10:26;23.70;;;15.43;;
16199;SDS011;8207;52.494;4.654;2023-04-29T01:12:56;20.83;;;14.90;;
16199;SDS011;8207;52.494;4.654;2023-04-29T01:15:32;27.57;;;15.43;;
16199;SDS011;8207;52.494;4.654;2023-04-29T01:18:05;21.60;;;15.43;;
16199;SDS011;8207;52.494;4.654;2023-04-29T01:20:39;24.53;;;14.93;;
16199;SDS011;8207;52.494;4.654;2023-04-29T01:23:08;24.77;;;15.03;;
16199;SDS011;8207;52.494;4.654;2023-04-29T01:25:37;22.57;;;15.50;;
16199;SDS011;8207;52.494;4.654;2023-04-29T01:28:07;18.97;;;14.20;;
16199;SDS011;8207;52.494;4.654;2023-04-29T01:30:41;24.60;;;15.33;;
16199;SDS011;8207;52.494;4.654;2023-04-29T01:33:16;19.83;;;15.13;;
16199;SDS011;8207;52.494;4.654;2023-04-29T01:35:55;18.30;;;12.97;;
16199;SDS011;8207;52.494;4.654;2023-04-29T01:38:35;19.73;;;14.37;;
16199;SDS011;8207;52.494;4.654;2023-04-29T01:41:12;17.87;;;13.47;;
16199;SDS011;8207;52.494;4.654;2023-04-29T01:43:42;19.23;;;14.20;;
16199;SDS011;8207;52.494;4.654;2023-04-29T01:46:13;19.10;;;15.17;;
16199;SDS011;8207;52.494;4.654;2023-04-29T01:48:43;21.73;;;14.37;;
16199;SDS011;8207;52.494;4.654;2023-04-29T01:51:10;14.97;;;12.87;;
16199;SDS011;8207;52.494;4.654;2023-04-29T01:53:37;20.07;;;14.20;;
16199;SDS011;8207;52.494;4.654;2023-04-29T01:56:05;22.70;;;14.27;;
16199;SDS011;8207;52.494;4.654;2023-04-29T01:58:33;18.60;;;13.53;;
16199;SDS011;8207;52.494;4.654;2023-04-29T02:01:00;19.07;;;14.00;;
16199;SDS011;8207;52.494;4.654;2023-04-29T02:03:27;25.67;;;13.70;;
16199;SDS011;8207;52.494;4.654;2023-04-29T02:05:54;21.87;;;14.57;;
16199;SDS011;8207;52.494;4.654;2023-04-29T02:08:21;18.43;;;12.70;;
16199;SDS011;8207;52.494;4.654;2023-04-29T02:10:52;19.57;;;14.00;;
16199;SDS011;8207;52.494;4.654;2023-04-29T02:13:19;19.83;;;13.30;;
16199;SDS011;8207;52.494;4.654;2023-04-29T02:15:47;18.60;;;14.33;;
16199;SDS011;8207;52.494;4.654;2023-04-29T02:18:14;20.27;;;14.23;;
16199;SDS011;8207;52.494;4.654;2023-04-29T02:20:41;25.00;;;14.43;;
16199;SDS011;8207;52.494;4.654;2023-04-29T02:23:08;19.63;;;13.67;;
16199;SDS011;8207;52.494;4.654;2023-04-29T02:25:35;19.87;;;13.90;;
16199;SDS011;8207;52.494;4.654;2023-04-29T02:28:02;19.23;;;13.90;;
16199;SDS011;8207;52.494;4.654;2023-04-29T02:30:29;20.37;;;12.87;;
16199;SDS011;8207;52.494;4.654;2023-04-29T02:32:57;26.17;;;14.20;;
16199;SDS011;8207;52.494;4.654;2023-04-29T02:35:24;18.43;;;12.80;;
16199;SDS011;8207;52.494;4.654;2023-04-29T02:37:51;25.47;;;14.73;;
16199;SDS011;8207;52.494;4.654;2023-04-29T02:40:18;26.47;;;15.07;;
16199;SDS011;8207;52.494;4.654;2023-04-29T02:42:45;21.60;;;15.37;;
16199;SDS011;8207;52.494;4.654;2023-04-29T02:45:11;27.90;;;16.53;;
16199;SDS011;8207;52.494;4.654;2023-04-29T02:47:38;29.70;;;16.73;;
16199;SDS011;8207;52.494;4.654;2023-04-29T02:50:07;22.43;;;15.80;;
16199;SDS011;8207;52.494;4.654;2023-04-29T02:52:34;32.97;;;17.53;;
16199;SDS011;8207;52.494;4.654;2023-04-29T02:55:01;27.67;;;17.47;;
16199;SDS011;8207;52.494;4.654;2023-04-29T02:57:28;26.23;;;17.77;;
16199;SDS011;8207;52.494;4.654;2023-04-29T02:59:56;29.97;;;16.63;;
16199;SDS011;8207;52.494;4.654;2023-04-29T03:02:23;29.53;;;17.60;;
16199;SDS011;8207;52.494;4.654;2023-04-29T03:04:50;28.63;;;17.90;;
16199;SDS011;8207;52.494;4.654;2023-04-29T03:07:18;27.27;;;16.90;;
16199;SDS011;8207;52.494;4.654;2023-04-29T03:09:45;31.97;;;18.50;;
16199;SDS011;8207;52.494;4.654;2023-04-29T03:12:12;30.97;;;18.27;;
16199;SDS011;8207;52.494;4.654;2023-04-29T03:14:40;32.40;;;19.67;;
16199;SDS011;8207;52.494;4.654;2023-04-29T03:17:07;31.07;;;18.77;;
16199;SDS011;8207;52.494;4.654;2023-04-29T03:19:34;25.17;;;17.10;;
16199;SDS011;8207;52.494;4.654;2023-04-29T03:22:01;27.73;;;17.40;;
16199;SDS011;8207;52.494;4.654;2023-04-29T03:24:29;25.63;;;17.30;;
16199;SDS011;8207;52.494;4.654;2023-04-29T03:26:56;31.27;;;18.20;;
16199;SDS011;8207;52.494;4.654;2023-04-29T03:29:25;30.93;;;19.53;;
16199;SDS011;8207;52.494;4.654;2023-04-29T03:31:52;27.03;;;17.87;;
16199;SDS011;8207;52.494;4.654;2023-04-29T03:34:20;28.97;;;17.83;;
16199;SDS011;8207;52.494;4.654;2023-04-29T03:36:47;27.73;;;17.60;;
16199;SDS011;8207;52.494;4.654;2023-04-29T03:39:15;27.23;;;18.40;;
16199;SDS011;8207;52.494;4.654;2023-04-29T03:41:43;27.70;;;17.17;;
16199;SDS011;8207;52.494;4.654;2023-04-29T03:44:12;28.20;;;17.70;;
16199;SDS011;8207;52.494;4.654;2023-04-29T03:46:39;27.30;;;17.13;;
16199;SDS011;8207;52.494;4.654;2023-04-29T03:49:06;24.20;;;17.27;;
16199;SDS011;8207;52.494;4.654;2023-04-29T03:51:33;25.73;;;17.57;;
16199;SDS011;8207;52.494;4.654;2023-04-29T03:54:00;29.00;;;17.83;;
16199;SDS011;8207;52.494;4.654;2023-04-29T03:56:27;25.27;;;17.07;;
16199;SDS011;8207;52.494;4.654;2023-04-29T03:58:55;24.53;;;16.57;;
16199;SDS011;8207;52.494;4.654;2023-04-29T04:01:22;30.17;;;17.60;;
16199;SDS011;8207;52.494;4.654;2023-04-29T04:03:50;28.80;;;17.97;;
16199;SDS011;8207;52.494;4.654;2023-04-29T04:06:16;26.67;;;17.00;;
16199;SDS011;8207;52.494;4.654;2023-04-29T04:08:43;29.90;;;17.13;;
16199;SDS011;8207;52.494;4.654;2023-04-29T04:11:10;28.17;;;17.33;;
16199;SDS011;8207;52.494;4.654;2023-04-29T04:13:39;23.80;;;16.57;;
16199;SDS011;8207;52.494;4.654;2023-04-29T04:16:08;26.40;;;17.63;;
16199;SDS011;8207;52.494;4.654;2023-04-29T04:18:36;29.30;;;16.50;;
16199;SDS011;8207;52.494;4.654;2023-04-29T04:21:06;27.17;;;16.50;;
16199;SDS011;8207;52.494;4.654;2023-04-29T04:23:34;29.90;;;18.43;;
16199;SDS011;8207;52.494;4.654;2023-04-29T04:26:02;25.67;;;18.23;;
16199;SDS011;8207;52.494;4.654;2023-04-29T04:28:29;25.07;;;17.27;;
16199;SDS011;8207;52.494;4.654;2023-04-29T04:30:55;26.70;;;16.80;;
16199;SDS011;8207;52.494;4.654;2023-04-29T04:33:24;29.10;;;18.67;;
16199;SDS011;8207;52.494;4.654;2023-04-29T04:35:51;23.97;;;16.43;;
16199;SDS011;8207;52.494;4.654;2023-04-29T04:38:18;30.03;;;17.23;;
16199;SDS011;8207;52.494;4.654;2023-04-29T04:40:46;22.97;;;16.53;;
16199;SDS011;8207;52.494;4.654;2023-04-29T04:43:12;28.67;;;15.97;;
16199;SDS011;8207;52.494;4.654;2023-04-29T04:45:39;27.10;;;17.90;;
16199;SDS011;8207;52.494;4.654;2023-04-29T04:48:06;30.60;;;17.23;;
16199;SDS011;8207;52.494;4.654;2023-04-29T04:50:34;22.40;;;16.07;;
16199;SDS011;8207;52.494;4.654;2023-04-29T04:53:01;23.87;;;15.73;;
16199;SDS011;8207;52.494;4.654;2023-04-29T04:55:28;26.40;;;15.70;;
16199;SDS011;8207;52.494;4.654;2023-04-29T04:57:57;24.53;;;15.93;;
16199;SDS011;8207;52.494;4.654;2023-04-29T05:00:24;22.47;;;15.07;;
16199;SDS011;8207;52.494;4.654;2023-04-29T05:02:51;26.80;;;15.97;;
16199;SDS011;8207;52.494;4.654;2023-04-29T05:05:17;24.07;;;13.93;;
16199;SDS011;8207;52.494;4.654;2023-04-29T05:07:46;24.30;;;14.50;;
16199;SDS011;8207;52.494;4.654;2023-04-29T05:10:13;25.37;;;13.87;;
16199;SDS011;8207;52.494;4.654;2023-04-29T05:12:39;24.73;;;13.90;;
16199;SDS011;8207;52.494;4.654;2023-04-29T05:15:07;24.50;;;14.50;;
16199;SDS011;8207;52.494;4.654;2023-04-29T05:17:34;22.50;;;13.10;;
16199;SDS011;8207;52.494;4.654;2023-04-29T05:20:01;24.87;;;13.40;;
16199;SDS011;8207;52.494;4.654;2023-04-29T05:22:29;22.73;;;12.97;;
16199;SDS011;8207;52.494;4.654;2023-04-29T05:24:57;22.00;;;13.23;;
16199;SDS011;8207;52.494;4.654;2023-04-29T05:27:27;23.07;;;12.47;;
16199;SDS011;8207;52.494;4.654;2023-04-29T05:29:54;25.93;;;13.07;;
16199;SDS011;8207;52.494;4.654;2023-04-29T05:32:21;27.70;;;12.23;;
16199;SDS011;8207;52.494;4.654;2023-04-29T05:34:48;20.97;;;13.00;;
16199;SDS011;8207;52.494;4.654;2023-04-29T05:37:15;22.13;;;12.03;;
16199;SDS011;8207;52.494;4.654;2023-04-29T05:39:42;24.87;;;14.40;;
16199;SDS011;8207;52.494;4.654;2023-04-29T05:42:10;22.47;;;13.87;;
16199;SDS011;8207;52.494;4.654;2023-04-29T05:44:37;22.93;;;12.37;;
16199;SDS011;8207;52.494;4.654;2023-04-29T05:47:05;22.53;;;12.57;;
16199;SDS011;8207;52.494;4.654;2023-04-29T05:49:31;22.30;;;11.97;;
16199;SDS011;8207;52.494;4.654;2023-04-29T05:51:58;20.13;;;11.60;;
16199;SDS011;8207;52.494;4.654;2023-04-29T05:54:28;20.37;;;11.30;;
16199;SDS011;8207;52.494;4.654;2023-04-29T05:56:55;22.87;;;11.80;;
16199;SDS011;8207;52.494;4.654;2023-04-29T05:59:23;21.60;;;11.33;;
16199;SDS011;8207;52.494;4.654;2023-04-29T06:01:50;19.47;;;10.97;;
16199;SDS011;8207;52.494;4.654;2023-04-29T06:04:17;19.13;;;10.87;;
16199;SDS011;8207;52.494;4.654;2023-04-29T06:06:44;14.23;;;10.53;;
16199;SDS011;8207;52.494;4.654;2023-04-29T06:09:11;16.00;;;10.13;;
16199;SDS011;8207;52.494;4.654;2023-04-29T06:11:39;18.57;;;11.13;;
16199;SDS011;8207;52.494;4.654;2023-04-29T06:14:06;18.43;;;10.20;;
16199;SDS011;8207;52.494;4.654;2023-04-29T06:16:47;21.60;;;11.40;;
16199;SDS011;8207;52.494;4.654;2023-04-29T06:19:14;18.60;;;11.00;;
16199;SDS011;8207;52.494;4.654;2023-04-29T06:21:41;18.00;;;9.33;;
16199;SDS011;8207;52.494;4.654;2023-04-29T06:24:08;15.80;;;9.43;;
16199;SDS011;8207;52.494;4.654;2023-04-29T06:26:35;15.40;;;9.30;;
16199;SDS011;8207;52.494;4.654;2023-04-29T06:29:02;12.27;;;9.13;;
16199;SDS011;8207;52.494;4.654;2023-04-29T06:31:29;18.33;;;9.13;;
16199;SDS011;8207;52.494;4.654;2023-04-29T06:33:57;12.47;;;8.63;;
16199;SDS011;8207;52.494;4.654;2023-04-29T06:36:24;14.93;;;9.20;;
16199;SDS011;8207;52.494;4.654;2023-04-29T06:38:52;11.40;;;7.80;;
16199;SDS011;8207;52.494;4.654;2023-04-29T06:41:19;15.40;;;9.40;;
16199;SDS011;8207;52.494;4.654;2023-04-29T06:43:46;14.93;;;9.20;;
16199;SDS011;8207;52.494;4.654;2023-04-29T06:46:12;15.73;;;9.20;;
16199;SDS011;8207;52.494;4.654;2023-04-29T06:48:39;15.47;;;9.20;;
16199;SDS011;8207;52.494;4.654;2023-04-29T06:51:08;10.27;;;8.23;;
16199;SDS011;8207;52.494;4.654;2023-04-29T06:53:35;11.30;;;7.90;;
16199;SDS011;8207;52.494;4.654;2023-04-29T06:56:02;12.63;;;8.10;;
16199;SDS011;8207;52.494;4.654;2023-04-29T06:58:29;12.27;;;8.07;;
16199;SDS011;8207;52.494;4.654;2023-04-29T07:00:56;10.97;;;8.00;;
16199;SDS011;8207;52.494;4.654;2023-04-29T07:03:23;15.80;;;7.97;;
16199;SDS011;8207;52.494;4.654;2023-04-29T07:05:50;14.77;;;7.70;;
16199;SDS011;8207;52.494;4.654;2023-04-29T07:08:18;11.37;;;7.60;;
16199;SDS011;8207;52.494;4.654;2023-04-29T07:14:08;13.03;;;8.83;;
16199;SDS011;8207;52.494;4.654;2023-04-29T07:16:35;12.17;;;7.93;;
16199;SDS011;8207;52.494;4.654;2023-04-29T07:19:01;11.23;;;7.40;;
16199;SDS011;8207;52.494;4.654;2023-04-29T07:21:28;11.18;;;7.78;;
16199;SDS011;8207;52.494;4.654;2023-04-29T07:23:57;13.23;;;8.17;;
16199;SDS011;8207;52.494;4.654;2023-04-29T07:26:26;11.20;;;7.80;;
16199;SDS011;8207;52.494;4.654;2023-04-29T07:28:53;10.37;;;7.97;;
16199;SDS011;8207;52.494;4.654;2023-04-29T07:31:20;9.68;;;6.72;;
16199;SDS011;8207;52.494;4.654;2023-04-29T07:33:47;9.50;;;7.55;;
16199;SDS011;8207;52.494;4.654;2023-04-29T07:36:13;10.37;;;7.00;;
16199;SDS011;8207;52.494;4.654;2023-04-29T07:38:40;10.57;;;7.38;;
16199;SDS011;8207;52.494;4.654;2023-04-29T07:41:08;12.95;;;7.95;;
16199;SDS011;8207;52.494;4.654;2023-04-29T07:43:35;8.93;;;7.15;;
16199;SDS011;8207;52.494;4.654;2023-04-29T07:46:02;9.70;;;7.15;;
16199;SDS011;8207;52.494;4.654;2023-04-29T07:48:30;10.10;;;7.35;;
16199;SDS011;8207;52.494;4.654;2023-04-29T07:51:02;11.07;;;7.07;;
16199;SDS011;8207;52.494;4.654;2023-04-29T07:53:29;8.85;;;6.63;;
16199;SDS011;8207;52.494;4.654;2023-04-29T07:55:56;9.70;;;6.40;;
16199;SDS011;8207;52.494;4.654;2023-04-29T07:58:24;11.55;;;6.47;;
16199;SDS011;8207;52.494;4.654;2023-04-29T08:00:53;8.65;;;5.80;;
16199;SDS011;8207;52.494;4.654;2023-04-29T08:03:20;10.27;;;6.40;;
16199;SDS011;8207;52.494;4.654;2023-04-29T08:05:46;8.48;;;6.57;;
16199;SDS011;8207;52.494;4.654;2023-04-29T08:08:15;9.05;;;5.95;;
16199;SDS011;8207;52.494;4.654;2023-04-29T08:10:42;7.32;;;6.15;;
16199;SDS011;8207;52.494;4.654;2023-04-29T08:13:08;10.73;;;6.57;;
16199;SDS011;8207;52.494;4.654;2023-04-29T08:15:36;8.65;;;6.10;;
16199;SDS011;8207;52.494;4.654;2023-04-29T08:18:03;6.75;;;5.70;;
16199;SDS011;8207;52.494;4.654;2023-04-29T08:20:30;7.85;;;5.28;;
16199;SDS011;8207;52.494;4.654;2023-04-29T08:22:59;8.65;;;4.60;;
16199;SDS011;8207;52.494;4.654;2023-04-29T08:25:25;8.13;;;4.18;;
16199;SDS011;8207;52.494;4.654;2023-04-29T08:27:53;7.10;;;4.43;;
16199;SDS011;8207;52.494;4.654;2023-04-29T08:30:20;6.70;;;3.50;;
16199;SDS011;8207;52.494;4.654;2023-04-29T08:32:48;7.60;;;4.05;;
16199;SDS011;8207;52.494;4.654;2023-04-29T08:35:15;6.88;;;4.07;;
16199;SDS011;8207;52.494;4.654;2023-04-29T08:37:42;5.80;;;3.95;;
16199;SDS011;8207;52.494;4.654;2023-04-29T08:40:09;6.22;;;4.20;;
16199;SDS011;8207;52.494;4.654;2023-04-29T08:42:38;7.68;;;4.05;;
16199;SDS011;8207;52.494;4.654;2023-04-29T08:45:05;9.45;;;3.95;;
16199;SDS011;8207;52.494;4.654;2023-04-29T08:47:32;7.50;;;4.53;;
16199;SDS011;8207;52.494;4.654;2023-04-29T08:50:01;12.32;;;4.68;;
16199;SDS011;8207;52.494;4.654;2023-04-29T08:52:29;6.18;;;4.47;;
16199;SDS011;8207;52.494;4.654;2023-04-29T08:54:57;5.93;;;4.00;;
16199;SDS011;8207;52.494;4.654;2023-04-29T08:57:26;8.90;;;4.32;;
16199;SDS011;8207;52.494;4.654;2023-04-29T08:59:54;10.38;;;5.35;;
16199;SDS011;8207;52.494;4.654;2023-04-29T09:02:24;10.05;;;5.50;;
16199;SDS011;8207;52.494;4.654;2023-04-29T09:04:52;7.40;;;4.70;;
16199;SDS011;8207;52.494;4.654;2023-04-29T09:07:27;8.35;;;5.43;;
16199;SDS011;8207;52.494;4.654;2023-04-29T09:09:57;8.02;;;5.68;;
16199;SDS011;8207;52.494;4.654;2023-04-29T09:12:25;9.23;;;5.72;;
16199;SDS011;8207;52.494;4.654;2023-04-29T09:14:51;6.53;;;5.07;;
16199;SDS011;8207;52.494;4.654;2023-04-29T09:17:18;12.80;;;5.65;;
16199;SDS011;8207;52.494;4.654;2023-04-29T09:19:45;9.77;;;5.07;;
16199;SDS011;8207;52.494;4.654;2023-04-29T09:22:12;10.98;;;5.25;;
16199;SDS011;8207;52.494;4.654;2023-04-29T09:24:40;7.28;;;4.78;;
16199;SDS011;8207;52.494;4.654;2023-04-29T09:27:08;8.13;;;4.90;;
16199;SDS011;8207;52.494;4.654;2023-04-29T09:29:35;7.30;;;4.32;;
16199;SDS011;8207;52.494;4.654;2023-04-29T09:32:17;10.98;;;5.90;;
16199;SDS011;8207;52.494;4.654;2023-04-29T09:34:45;9.63;;;6.15;;
16199;SDS011;8207;52.494;4.654;2023-04-29T09:37:22;14.10;;;6.70;;
16199;SDS011;8207;52.494;4.654;2023-04-29T09:39:51;6.97;;;5.88;;
16199;SDS011;8207;52.494;4.654;2023-04-29T09:42:18;10.02;;;5.38;;
16199;SDS011;8207;52.494;4.654;2023-04-29T09:44:45;5.90;;;4.22;;
16199;SDS011;8207;52.494;4.654;2023-04-29T09:47:12;8.68;;;4.75;;
16199;SDS011;8207;52.494;4.654;2023-04-29T09:49:40;9.00;;;4.50;;
16199;SDS011;8207;52.494;4.654;2023-04-29T09:52:10;7.45;;;4.30;;
16199;SDS011;8207;52.494;4.654;2023-04-29T09:54:38;10.00;;;4.50;;
16199;SDS011;8207;52.494;4.654;2023-04-29T09:57:08;8.35;;;4.07;;
16199;SDS011;8207;52.494;4.654;2023-04-29T09:59:36;9.10;;;4.63;;
16199;SDS011;8207;52.494;4.654;2023-04-29T10:02:05;7.30;;;3.95;;
16199;SDS011;8207;52.494;4.654;2023-04-29T10:04:35;5.40;;;3.72;;
16199;SDS011;8207;52.494;4.654;2023-04-29T10:07:05;7.72;;;4.68;;
16199;SDS011;8207;52.494;4.654;2023-04-29T10:09:33;6.47;;;3.78;;
16199;SDS011;8207;52.494;4.654;2023-04-29T10:12:05;6.70;;;4.20;;
16199;SDS011;8207;52.494;4.654;2023-04-29T10:14:36;9.50;;;4.05;;
16199;SDS011;8207;52.494;4.654;2023-04-29T10:17:21;6.47;;;4.10;;
16199;SDS011;8207;52.494;4.654;2023-04-29T10:19:55;7.53;;;4.25;;
16199;SDS011;8207;52.494;4.654;2023-04-29T10:22:26;7.45;;;4.55;;
16199;SDS011;8207;52.494;4.654;2023-04-29T10:24:58;9.32;;;4.68;;
16199;SDS011;8207;52.494;4.654;2023-04-29T10:27:28;7.20;;;4.43;;
16199;SDS011;8207;52.494;4.654;2023-04-29T10:29:58;7.10;;;4.03;;
16199;SDS011;8207;52.494;4.654;2023-04-29T10:32:29;8.65;;;4.32;;
16199;SDS011;8207;52.494;4.654;2023-04-29T10:34:57;9.65;;;4.25;;
16199;SDS011;8207;52.494;4.654;2023-04-29T10:37:26;5.70;;;3.95;;
16199;SDS011;8207;52.494;4.654;2023-04-29T10:39:55;5.50;;;3.60;;
16199;SDS011;8207;52.494;4.654;2023-04-29T10:42:31;8.63;;;3.88;;
16199;SDS011;8207;52.494;4.654;2023-04-29T10:45:17;8.00;;;3.53;;
16199;SDS011;8207;52.494;4.654;2023-04-29T10:50:40;6.15;;;3.33;;
16199;SDS011;8207;52.494;4.654;2023-04-29T10:53:26;6.78;;;3.78;;
16199;SDS011;8207;52.494;4.654;2023-04-29T10:55:55;7.97;;;4.22;;
16199;SDS011;8207;52.494;4.654;2023-04-29T10:58:34;9.80;;;4.38;;
16199;SDS011;8207;52.494;4.654;2023-04-29T11:01:03;7.65;;;3.90;;
16199;SDS011;8207;52.494;4.654;2023-04-29T11:03:44;6.50;;;3.40;;
16199;SDS011;8207;52.494;4.654;2023-04-29T11:06:13;7.93;;;3.55;;
16199;SDS011;8207;52.494;4.654;2023-04-29T11:08:40;7.70;;;3.90;;
16199;SDS011;8207;52.494;4.654;2023-04-29T11:11:09;4.82;;;3.90;;
16199;SDS011;8207;52.494;4.654;2023-04-29T11:13:39;6.65;;;4.40;;
16199;SDS011;8207;52.494;4.654;2023-04-29T11:16:11;6.47;;;3.70;;
16199;SDS011;8207;52.494;4.654;2023-04-29T11:21:33;6.13;;;3.30;;
16199;SDS011;8207;52.494;4.654;2023-04-29T11:24:00;9.23;;;3.80;;
16199;SDS011;8207;52.494;4.654;2023-04-29T11:26:28;5.18;;;3.47;;
16199;SDS011;8207;52.494;4.654;2023-04-29T11:28:57;5.85;;;3.63;;
16199;SDS011;8207;52.494;4.654;2023-04-29T11:31:25;12.38;;;3.85;;
16199;SDS011;8207;52.494;4.654;2023-04-29T11:33:54;8.45;;;3.85;;
16199;SDS011;8207;52.494;4.654;2023-04-29T11:36:20;7.68;;;3.35;;
16199;SDS011;8207;52.494;4.654;2023-04-29T11:38:47;10.70;;;3.70;;
16199;SDS011;8207;52.494;4.654;2023-04-29T11:41:14;8.18;;;3.60;;
16199;SDS011;8207;52.494;4.654;2023-04-29T11:43:41;5.55;;;2.83;;
16199;SDS011;8207;52.494;4.654;2023-04-29T11:46:13;5.97;;;3.33;;
16199;SDS011;8207;52.494;4.654;2023-04-29T11:48:46;6.72;;;2.75;;
16199;SDS011;8207;52.494;4.654;2023-04-29T11:51:14;7.93;;;3.13;;
16199;SDS011;8207;52.494;4.654;2023-04-29T11:53:43;7.20;;;2.83;;
16199;SDS011;8207;52.494;4.654;2023-04-29T11:56:10;6.97;;;3.28;;
16199;SDS011;8207;52.494;4.654;2023-04-29T11:58:37;6.55;;;2.90;;
16199;SDS011;8207;52.494;4.654;2023-04-29T12:01:04;6.95;;;3.63;;
16199;SDS011;8207;52.494;4.654;2023-04-29T12:03:33;9.15;;;3.70;;
16199;SDS011;8207;52.494;4.654;2023-04-29T12:06:00;5.10;;;3.05;;
16199;SDS011;8207;52.494;4.654;2023-04-29T12:08:28;8.73;;;3.22;;
16199;SDS011;8207;52.494;4.654;2023-04-29T12:10:57;7.10;;;3.20;;
16199;SDS011;8207;52.494;4.654;2023-04-29T12:13:26;6.72;;;3.05;;
16199;SDS011;8207;52.494;4.654;2023-04-29T12:15:54;6.63;;;2.97;;
16199;SDS011;8207;52.494;4.654;2023-04-29T12:18:22;7.03;;;3.05;;
16199;SDS011;8207;52.494;4.654;2023-04-29T12:20:52;8.10;;;3.13;;
16199;SDS011;8207;52.494;4.654;2023-04-29T12:23:21;5.13;;;3.20;;
16199;SDS011;8207;52.494;4.654;2023-04-29T12:25:51;10.93;;;3.90;;
16199;SDS011;8207;52.494;4.654;2023-04-29T12:28:19;8.52;;;3.10;;
16199;SDS011;8207;52.494;4.654;2023-04-29T12:30:46;5.25;;;2.88;;
16199;SDS011;8207;52.494;4.654;2023-04-29T12:33:15;6.65;;;3.30;;
16199;SDS011;8207;52.494;4.654;2023-04-29T12:35:46;7.80;;;4.32;;
16199;SDS011;8207;52.494;4.654;2023-04-29T12:38:16;9.30;;;4.20;;
16199;SDS011;8207;52.494;4.654;2023-04-29T12:40:46;10.38;;;3.63;;
16199;SDS011;8207;52.494;4.654;2023-04-29T12:43:13;6.22;;;3.50;;
16199;SDS011;8207;52.494;4.654;2023-04-29T12:45:40;8.90;;;3.08;;
16199;SDS011;8207;52.494;4.654;2023-04-29T12:48:08;7.82;;;3.60;;
16199;SDS011;8207;52.494;4.654;2023-04-29T12:50:36;6.40;;;3.20;;
16199;SDS011;8207;52.494;4.654;2023-04-29T12:53:04;10.70;;;3.60;;
16199;SDS011;8207;52.494;4.654;2023-04-29T12:55:33;5.22;;;3.22;;
16199;SDS011;8207;52.494;4.654;2023-04-29T12:58:01;5.68;;;2.75;;
16199;SDS011;8207;52.494;4.654;2023-04-29T13:00:29;8.20;;;3.00;;
16199;SDS011;8207;52.494;4.654;2023-04-29T13:02:56;5.38;;;3.85;;
16199;SDS011;8207;52.494;4.654;2023-04-29T13:05:23;5.97;;;2.92;;
16199;SDS011;8207;52.494;4.654;2023-04-29T13:07:50;5.35;;;3.03;;
16199;SDS011;8207;52.494;4.654;2023-04-29T13:10:17;6.55;;;3.30;;
16199;SDS011;8207;52.494;4.654;2023-04-29T13:12:45;4.40;;;2.85;;
16199;SDS011;8207;52.494;4.654;2023-04-29T13:15:12;6.78;;;2.92;;
16199;SDS011;8207;52.494;4.654;2023-04-29T13:17:39;8.60;;;2.75;;
16199;SDS011;8207;52.494;4.654;2023-04-29T13:20:06;6.13;;;2.92;;
16199;SDS011;8207;52.494;4.654;2023-04-29T13:22:35;5.88;;;4.07;;
16199;SDS011;8207;52.494;4.654;2023-04-29T13:25:02;6.63;;;2.53;;
16199;SDS011;8207;52.494;4.654;2023-04-29T13:27:30;5.85;;;2.75;;
16199;SDS011;8207;52.494;4.654;2023-04-29T13:29:58;6.85;;;2.70;;
16199;SDS011;8207;52.494;4.654;2023-04-29T13:32:25;5.35;;;2.70;;
16199;SDS011;8207;52.494;4.654;2023-04-29T13:34:52;6.15;;;2.55;;
16199;SDS011;8207;52.494;4.654;2023-04-29T13:37:19;4.50;;;2.92;;
16199;SDS011;8207;52.494;4.654;2023-04-29T13:39:46;4.78;;;2.25;;
16199;SDS011;8207;52.494;4.654;2023-04-29T13:42:13;2.95;;;2.08;;
16199;SDS011;8207;52.494;4.654;2023-04-29T13:44:40;3.97;;;2.25;;
16199;SDS011;8207;52.494;4.654;2023-04-29T13:47:10;6.80;;;2.95;;
16199;SDS011;8207;52.494;4.654;2023-04-29T13:49:37;3.47;;;2.53;;
16199;SDS011;8207;52.494;4.654;2023-04-29T13:52:05;4.78;;;1.90;;
16199;SDS011;8207;52.494;4.654;2023-04-29T13:54:32;2.55;;;1.73;;
16199;SDS011;8207;52.494;4.654;2023-04-29T13:56:59;3.42;;;1.98;;
16199;SDS011;8207;52.494;4.654;2023-04-29T13:59:28;4.82;;;2.08;;
16199;SDS011;8207;52.494;4.654;2023-04-29T14:01:55;4.57;;;1.92;;
16199;SDS011;8207;52.494;4.654;2023-04-29T14:04:24;3.78;;;1.80;;
16199;SDS011;8207;52.494;4.654;2023-04-29T14:06:50;3.05;;;2.03;;
16199;SDS011;8207;52.494;4.654;2023-04-29T14:09:18;3.28;;;1.70;;
16199;SDS011;8207;52.494;4.654;2023-04-29T14:11:45;3.80;;;1.88;;
16199;SDS011;8207;52.494;4.654;2023-04-29T14:14:12;4.57;;;2.20;;
16199;SDS011;8207;52.494;4.654;2023-04-29T14:16:39;5.18;;;2.00;;
16199;SDS011;8207;52.494;4.654;2023-04-29T14:19:06;3.65;;;1.73;;
16199;SDS011;8207;52.494;4.654;2023-04-29T14:21:35;3.88;;;2.17;;
16199;SDS011;8207;52.494;4.654;2023-04-29T14:24:01;3.83;;;1.63;;
16199;SDS011;8207;52.494;4.654;2023-04-29T14:26:28;2.03;;;1.60;;
16199;SDS011;8207;52.494;4.654;2023-04-29T14:28:56;3.83;;;1.60;;
16199;SDS011;8207;52.494;4.654;2023-04-29T14:31:23;3.17;;;1.42;;
16199;SDS011;8207;52.494;4.654;2023-04-29T14:33:51;3.75;;;1.70;;
16199;SDS011;8207;52.494;4.654;2023-04-29T14:36:18;3.03;;;1.10;;
16199;SDS011;8207;52.494;4.654;2023-04-29T14:38:47;2.22;;;1.20;;
16199;SDS011;8207;52.494;4.654;2023-04-29T14:41:14;4.00;;;1.20;;
16199;SDS011;8207;52.494;4.654;2023-04-29T14:43:41;5.72;;;1.20;;
16199;SDS011;8207;52.494;4.654;2023-04-29T14:46:08;2.85;;;1.50;;
16199;SDS011;8207;52.494;4.654;2023-04-29T14:48:36;2.97;;;1.33;;
16199;SDS011;8207;52.494;4.654;2023-04-29T14:51:03;2.13;;;1.15;;
16199;SDS011;8207;52.494;4.654;2023-04-29T14:53:31;2.97;;;1.40;;
16199;SDS011;8207;52.494;4.654;2023-04-29T14:55:59;4.53;;;1.77;;
16199;SDS011;8207;52.494;4.654;2023-04-29T14:58:27;3.40;;;1.83;;
16199;SDS011;8207;52.494;4.654;2023-04-29T15:00:54;4.30;;;1.65;;
16199;SDS011;8207;52.494;4.654;2023-04-29T15:03:21;3.65;;;1.42;;